Sikuliaq — WDG7520 — position and weather

sailwx.info

Track history (hours):
 
Tides and Currents Weather Stations Pressure Air Temp Water Temp Dewpoint Dewpoint Depression Visibility Wind Speed Wind Dir Waves Ship Positions

Oceanographic research ship Sikuliaq (USA)

Owner: Mackay Communications, Raleigh, NC. More information available from US FCC via Universal Licensing System.

Last reported at 2019-Jun-16 14:00 UTC. Time now 2019-Jun-16 15:13 UTC.
Position N 53°48' W 160°12'.

Length 80 m; draft 6.2 m.

Type: Other ship. MMSI: 338417000.

Wind from 060 at 10 knots

Barometer 998.6 mb
Air temperature 8.3 ° C
Dewpoint 7.4 ° C

Date/timePositionNaut miles runAvg speedWind from/ knotsBaromVisibWave heightAir tempDewpointWater temp
2019-Jun-16 14:00N 53°48' W 160°12'4 3.5 060 / 10998.6 8.3 7.4
2019-Jun-16 13:00N 53°48' W 160°06'6 6.0 070 / 9998.8 8.1 7.3
2019-Jun-16 12:00N 53°42' W 160°06'0 0.0 090 / 14998.5 8.4 7.6
2019-Jun-16 11:00N 53°42' W 160°06'0 0.0 080 / 10998.6 8.6 7.6
2019-Jun-16 10:00N 53°42' W 160°06'6 6.0 080 / 12998.7 8.4 7.2
2019-Jun-16 09:00N 53°48' W 160°06'0 0.0 090 / 14998.7 8.5 7.4
2019-Jun-16 08:00N 53°48' W 160°06'7 7.0 100 / 14998.9 8.6 7.3
2019-Jun-16 07:00N 53°42' W 160°00'4 3.6 100 / 15998.5 8.6 7.4
2019-Jun-16 06:00N 53°42' W 160°06'7 7.0 100 / 17998.0 8.6 7.2
2019-Jun-16 05:00N 53°48' W 160°00'0 0.0 080 / 13998.2 8.6 7.5
2019-Jun-16 04:00N 53°48' W 160°00'4 3.5 110 / 16998.1 8.6 7.6
2019-Jun-16 03:00N 53°48' W 159°54'4 3.5 110 / 18997.9 8.7 7.3
2019-Jun-16 02:00N 53°48' W 160°00'0 0.0 120 / 16998.1 8.7 7.3
2019-Jun-16 01:00N 53°48' W 160°00'0 0.0 120 / 16997.9 8.6 7.7
2019-Jun-16 00:00N 53°48' W 160°00'4 3.5 120 / 16997.8 8.4 7.6
2019-Jun-15 23:00N 53°48' W 159°54'4 3.5 120 / 18997.2 8.4 7.9
2019-Jun-15 22:00N 53°48' W 160°00'7 7.0 120 / 18997.4 8.5 7.6
2019-Jun-15 21:00N 53°54' W 160°06'4 3.5 110 / 18997.3 8.6 7.3
2019-Jun-15 20:00N 53°54' W 160°00'0 0.0 110 / 18997.1 8.3 7.6
2019-Jun-15 19:00N 53°54' W 160°00'4 3.5 100 / 15997.0 8.7 7.4
2019-Jun-15 18:00N 53°54' W 160°06'4 3.5 120 / 18996.6 8.6 7.2
2019-Jun-15 17:00N 53°54' W 160°00'0 0.0 120 / 14996.2 8.7 7.0
2019-Jun-15 16:00N 53°54' W 160°00'0 0.0 120 / 15995.9 8.4 7.6
2019-Jun-15 15:00N 53°54' W 160°00'4 3.5 130 / 16995.7 8.4 7.9
2019-Jun-15 14:00N 53°54' W 160°06'7 7.0 130 / 15995.3 8.5 7.5
2019-Jun-15 13:00N 53°48' W 160°12'7 7.0 130 / 15995.2 8.5 7.9
2019-Jun-15 12:00N 53°54' W 160°18'4 3.5 120 / 16995.0 8.4 8.3
2019-Jun-15 11:00N 53°54' W 160°12'4 3.5 110 / 21995.2 8.3 8.0
2019-Jun-15 10:00N 53°54' W 160°06'7 7.0 130 / 20994.9 8.4 8.1
2019-Jun-15 09:00N 53°48' W 160°12'6 6.0 120 / 19994.8 8.4 8.2
2019-Jun-15 08:00N 53°54' W 160°12'0 0.0 110 / 18994.8 8.4 8.4
2019-Jun-15 07:00N 53°54' W 160°12'6 6.0 090 / 19994.4 8.5 8.1
2019-Jun-15 06:00N 54°00' W 160°12'0 0.0 090 / 17994.7 8.6 7.8
2019-Jun-15 05:00N 54°00' W 160°12'0 0.0 070 / 20994.8 8.5 7.6
2019-Jun-15 04:00N 54°00' W 160°12'6 6.0 090 / 22995.2 8.8 6.4
2019-Jun-15 03:00N 53°54' W 160°12'6 6.0 070 / 13995.4 8.7 6.6
2019-Jun-15 02:00N 54°00' W 160°12'6 6.0 090 / 15995.9 8.7 7.0
2019-Jun-15 01:00N 54°06' W 160°12'4 3.5 090 / 14996.2 8.7 7.0
2019-Jun-15 00:00N 54°06' W 160°18'4 3.5 090 / 14996.0 8.7 6.7
2019-Jun-14 23:00N 54°06' W 160°12'4 3.5 100 / 11996.2 8.5 6.8
2019-Jun-14 22:00N 54°06' W 160°18'6 6.0 100 / 11996.3 8.1 7.0
2019-Jun-14 21:00N 54°12' W 160°18'0 0.0 110 / 12996.4 7.8 6.9
2019-Jun-14 20:00N 54°12' W 160°18'0 0.0 130 / 15996.4 8.1 7.4
2019-Jun-14 19:00N 54°12' W 160°18'0 0.0 100 / 17996.6 8.1 7.9
2019-Jun-14 18:00N 54°12' W 160°18'6 6.0 080 / 17996.7 8.3 7.3
2019-Jun-14 17:00N 54°18' W 160°18'0 0.0 080 / 18996.4 8.5 7.9
2019-Jun-14 16:00N 54°18' W 160°18'0 0.0 080 / 21996.3 8.4 8.3
2019-Jun-14 15:00N 54°18' W 160°18'7 6.9 070 / 22996.8 8.6 8.2
2019-Jun-14 14:00N 54°12' W 160°24'6 6.0 090 / 23996.8 8.5 8.5
2019-Jun-14 13:00N 54°06' W 160°24'6 6.0 090 / 19997.1 8.5 8.5
2019-Jun-14 12:00N 54°00' W 160°24'1312.5 080 / 14997.6 8.4 8.3
2019-Jun-14 11:00N 53°48' W 160°30'4 3.5 100 / 10997.9 8.2 8.1
2019-Jun-14 10:00N 53°48' W 160°24'0 0.0 100 / 15998.3 8.2 8.0
2019-Jun-14 09:00N 53°48' W 160°24'4 3.5 110 / 15998.6 8.3 8.2
2019-Jun-14 08:00N 53°48' W 160°18'0 0.0 110 / 16998.6 8.6 8.0
2019-Jun-14 07:00N 53°48' W 160°18'4 3.5 110 / 19998.5 8.4 8.4
2019-Jun-14 06:00N 53°48' W 160°12'0 0.0 100 / 18998.2 8.5 8.5
2019-Jun-14 05:00N 53°48' W 160°12'0 0.0 100 / 21998.1 8.6 8.5
2019-Jun-14 04:00N 53°48' W 160°12'4 3.5 100 / 23998.3 8.6 8.5
2019-Jun-14 03:00N 53°48' W 160°06'0 0.0 090 / 25998.7 8.7 8.5
2019-Jun-14 02:00N 53°48' W 160°06'4 3.5 090 / 27999.0 8.7 8.5
2019-Jun-14 01:00N 53°48' W 160°00'6 6.0 100 / 19999.5 8.7 8.4
2019-Jun-14 00:00N 53°54' W 160°00'4 3.5 110 / 151000.1 8.8 8.5
2019-Jun-13 23:00N 53°54' W 159°54'0 0.0 090 / 291000.1 8.6 8.2
2019-Jun-13 22:00N 53°54' W 159°54'4 3.5 100 / 191000.9 8.7 8.2
2019-Jun-13 21:00N 53°54' W 159°48'6 6.0 100 / 301001.0 8.6 8.2
2019-Jun-13 20:00N 53°48' W 159°48'4 3.5 100 / 271001.5 8.8 7.8
2019-Jun-13 19:00N 53°48' W 159°54'0 0.0 110 / 261001.9 8.8 7.8
2019-Jun-13 18:00N 53°48' W 159°54'4 3.5 110 / 261002.0 8.8 7.8
2019-Jun-13 17:00N 53°48' W 160°00'0 0.0 100 / 291001.9 8.8 7.7
2019-Jun-13 16:00N 53°48' W 160°00'0 0.0 100 / 291001.9 8.8 7.8
2019-Jun-13 15:00N 53°48' W 160°00'4 3.5 110 / 271002.1 8.8 7.9
2019-Jun-13 14:00N 53°48' W 160°06'0 0.0 110 / 271002.5 8.8 7.9
2019-Jun-13 13:00N 53°48' W 160°06'0 0.0 110 / 271002.9 8.7 8.0
2019-Jun-13 12:00N 53°48' W 160°06'4 3.5 110 / 241003.4 8.6 8.1
2019-Jun-13 11:00N 53°48' W 160°12'0 0.0 110 / 251003.8 8.6 8.1
2019-Jun-13 10:00N 53°48' W 160°12'4 3.5 110 / 241004.4 8.6 8.1
2019-Jun-13 09:00N 53°48' W 160°18'6 6.0 120 / 251004.7 8.7 8.1
2019-Jun-13 08:00N 53°42' W 160°18'4 3.6 130 / 291004.6 8.4 8.3
2019-Jun-13 07:00N 53°42' W 160°12'0 0.0 120 / 81005.1 8.8 7.9
2019-Jun-13 06:00N 53°42' W 160°12'4 3.6 120 / 111005.6 8.6 7.9
2019-Jun-13 05:00N 53°42' W 160°06'0 0.0 130 / 71006.1 9.0 7.9
2019-Jun-13 04:00N 53°42' W 160°06'4 3.6 120 / 121006.7 8.7 7.9
2019-Jun-13 03:00N 53°42' W 160°00'4 3.6 120 / 191007.2 8.6 7.6
2019-Jun-13 02:00N 53°42' W 160°06'0 0.0 120 / 181007.8 8.7 7.4
2019-Jun-13 01:00N 53°42' W 160°06'0 0.0 120 / 151008.6 8.8 7.7
2019-Jun-13 00:00N 53°42' W 160°06'6 6.0 130 / 181009.3 8.8 7.5
2019-Jun-12 23:00N 53°48' W 160°06'0 0.0 120 / 121009.5 9.0 8.0
2019-Jun-12 22:00N 53°48' W 160°06'0 0.0 130 / 111009.9 8.9 7.7
2019-Jun-12 21:00N 53°48' W 160°06'0 0.0 130 / 91009.9 8.9 7.4
2019-Jun-12 20:00N 53°48' W 160°06'6 6.0 160 / 91010.2 8.9 7.4
2019-Jun-12 19:00N 53°54' W 160°06'0 0.0 190 / 101010.5 8.8 7.6
2019-Jun-12 18:00N 53°54' W 160°06'4 3.5 200 / 71009.9 8.8 7.7
2019-Jun-12 17:00N 53°54' W 160°12'0 0.0 130 / 61009.8 7.9 7.9
2019-Jun-12 16:00N 53°54' W 160°12'6 6.0 160 / 81010.1 7.8 7.7
2019-Jun-12 15:00N 54°00' W 160°12'0 0.0 110 / 71010.2 8.9 8.5
2019-Jun-12 14:00N 54°00' W 160°12'0 0.0 150 / 71010.6 8.9 8.4
2019-Jun-12 13:00N 54°00' W 160°12'0 0.0 130 / 71011.0 9.2 8.4
2019-Jun-12 12:00N 54°00' W 160°12'6 6.0 110 / 61011.1 9.3 8.5
2019-Jun-12 11:00N 54°06' W 160°12'0 0.0 100 / 41011.3 9.5 7.9
2019-Jun-12 10:00N 54°06' W 160°12'6 6.0 140 / 21011.6 9.8 7.5
2019-Jun-12 09:00N 54°00' W 160°12'0 0.0 200 / 11011.9 9.7 7.8
2019-Jun-12 08:00N 54°00' W 160°12'0 0.0 060 / 21012.0 9.7 8.4
2019-Jun-12 07:00N 54°00' W 160°12'6 6.0 020 / 11011.7 9.7 8.5
2019-Jun-12 06:00N 54°06' W 160°12'0 0.0 290 / 21011.5 10.2 7.7
2019-Jun-12 05:00N 54°06' W 160°12'0 0.0 250 / 21011.8 10.2 8.3
2019-Jun-12 04:00N 54°06' W 160°12'4 3.5 190 / 31012.0 10.1 8.4
2019-Jun-12 03:00N 54°06' W 160°18'0 0.0 030 / 41012.0 10.4 8.1
2019-Jun-12 02:00N 54°06' W 160°18'6 6.0 1012.4 10.4 8.2
2019-Jun-12 01:00N 54°12' W 160°18'0 0.0 1012.5 10.0 8.2
2019-Jun-12 00:00N 54°12' W 160°18'0 0.0 340 / 51012.9 10.2 8.2
2019-Jun-11 23:00N 54°12' W 160°18'0 0.0 340 / 61012.9 10.4 8.1
2019-Jun-11 22:00N 54°12' W 160°18'6 6.0 340 / 71012.9 10.4 7.9
2019-Jun-11 21:00N 54°18' W 160°18'0 0.0 330 / 51012.9 9.9 7.6
2019-Jun-11 20:00N 54°18' W 160°18'0 0.0 310 / 51013.1 9.9 7.6
2019-Jun-11 19:00N 54°18' W 160°18'7 6.9 320 / 161012.5 9.3 7.8
2019-Jun-11 18:00N 54°24' W 160°24'0 0.0 330 / 71012.5 9.7 7.4
2019-Jun-11 17:00N 54°24' W 160°24'7 6.9 310 / 111012.5 9.1 7.6
2019-Jun-11 16:00N 54°18' W 160°18'6 6.0 320 / 151012.4 9.0 7.7
2019-Jun-11 15:00N 54°12' W 160°18'6 6.0 310 / 131012.6 9.1 7.8
2019-Jun-11 14:00N 54°06' W 160°18'7 7.0 320 / 91012.6 9.2 8.0
2019-Jun-11 13:00N 54°00' W 160°12'0 0.0 340 / 101012.8 9.5 7.5
2019-Jun-11 12:00N 54°00' W 160°12'7 7.0 010 / 101012.9 9.9 6.7
2019-Jun-11 11:00N 53°54' W 160°18'7 7.1 350 / 91012.9 9.5 7.1
2019-Jun-11 10:00N 53°54' W 160°06'4 3.5 360 / 111013.0 9.4 7.0
2019-Jun-11 09:00N 53°54' W 160°00'4 3.5 1012.7 9.7 6.8
2019-Jun-11 08:00N 53°54' W 160°06'7 7.0 350 / 81012.7 9.4 7.0
2019-Jun-11 07:00N 53°48' W 160°12'0 0.0 020 / 91012.2 9.6 6.8
2019-Jun-11 06:00N 53°48' W 160°12'4 3.5 010 / 101012.3 9.6 6.4
2019-Jun-11 05:00N 53°48' W 160°06'9 9.3 010 / 121012.3 9.5 6.9
2019-Jun-11 04:00N 53°54' W 159°54'7 7.0 010 / 141012.3 9.5 7.4
2019-Jun-11 03:00N 53°48' W 160°00'4 3.5 1012.5 9.3 7.1
2019-Jun-11 02:00N 53°48' W 160°06'4 3.5 350 / 151012.7 9.1 7.1
2019-Jun-11 01:00N 53°48' W 160°12'4 3.5 350 / 141013.2 9.2 6.6
2019-Jun-11 00:00N 53°48' W 160°06'7 7.0 010 / 181013.3 9.1 6.4
2019-Jun-10 23:00N 53°42' W 160°00'7 7.1 010 / 171013.5 9.0 6.2
2019-Jun-10 22:00N 53°42' W 159°48'29 9.7 010 / 241013.2 8.9 6.6
2019-Jun-10 19:00N 53°48' W 159°00'9 9.3 030 / 231013.3 8.8 6.0
2019-Jun-10 18:00N 53°54' W 158°48'1616.0 040 / 191013.3 8.7 5.7
2019-Jun-10 17:00N 54°06' W 158°30'9 9.2 040 / 181013.5 8.7 6.4
2019-Jun-10 16:00N 54°12' W 158°18'9 9.2 040 / 191013.6 8.7 6.7
2019-Jun-10 15:00N 54°18' W 158°06'1212.1 040 / 191013.6 8.7 6.7
2019-Jun-10 14:00N 54°24' W 157°48'1413.9 040 / 191013.8 8.8 6.7
2019-Jun-10 13:00N 54°36' W 157°36'9 9.2 040 / 181014.3 8.9 6.5
2019-Jun-10 12:00N 54°42' W 157°24'1212.0 040 / 161014.8 9.1 6.3
2019-Jun-10 11:00N 54°48' W 157°06'9 9.2 040 / 181015.7 9.2 6.5
2019-Jun-10 10:00N 54°54' W 156°54'9 9.1 040 / 191016.1 9.2 6.8
2019-Jun-10 09:00N 55°00' W 156°42'0 0.0 030 / 231016.3 9.0 6.9
2019-Jun-10 08:00N 55°00' W 156°42'0 0.0 050 / 211016.9 9.1 7.1
2019-Jun-10 07:00N 55°00' W 156°42'6 6.0 050 / 211017.1 9.1 7.1
2019-Jun-10 06:00N 54°54' W 156°42'6 6.0 050 / 221016.4 9.1 6.8
2019-Jun-10 05:00N 55°00' W 156°42'6 6.0 060 / 261016.5 9.1 6.9
2019-Jun-10 04:00N 54°54' W 156°42'3 3.5 060 / 231016.9 9.2 6.7
2019-Jun-10 03:00N 54°54' W 156°36'0 0.0 050 / 211017.2 9.3 6.7
2019-Jun-10 02:00N 54°54' W 156°36'0 0.0 060 / 211017.9 9.4 6.5
2019-Jun-10 01:00N 54°54' W 156°36'7 6.9 060 / 251017.6 9.2 6.6
2019-Jun-10 00:00N 54°48' W 156°30'6 6.0 050 / 241018.1 9.3 6.7
2019-Jun-09 23:00N 54°42' W 156°30'7 6.9 060 / 241018.1 9.2 5.9
2019-Jun-09 22:00N 54°48' W 156°36'3 3.5 050 / 191018.8 9.2 5.9
2019-Jun-09 21:00N 54°48' W 156°30'6 6.0 060 / 201019.0 9.2 6.0
2019-Jun-09 20:00N 54°42' W 156°30'3 3.5 050 / 211018.5 9.1 5.1
2019-Jun-09 19:00N 54°42' W 156°24'6 6.0 050 / 181018.4 8.8 5.5
2019-Jun-09 18:00N 54°36' W 156°24'0 0.0 060 / 191018.2 8.8 4.8
2019-Jun-09 17:00N 54°36' W 156°24'6 6.0 050 / 221017.5 8.7 5.1
2019-Jun-09 16:00N 54°42' W 156°24'0 0.0 050 / 201017.9 8.9 4.8
2019-Jun-09 15:00N 54°42' W 156°24'6 6.0 060 / 211017.6 8.7 5.3
2019-Jun-09 14:00N 54°36' W 156°24'3 3.5 070 / 221017.2 8.5 6.2
2019-Jun-09 13:00N 54°36' W 156°18'6 6.0 070 / 201017.4 8.5 6.4
2019-Jun-09 12:00N 54°30' W 156°18'7 6.9 060 / 201017.3 8.6 6.3
2019-Jun-09 11:00N 54°24' W 156°12'7 6.9 070 / 211017.0 8.7 5.2
2019-Jun-09 10:00N 54°30' W 156°18'0 0.0 060 / 211016.9 8.6 6.1
2019-Jun-09 09:00N 54°30' W 156°18'0 0.0 070 / 211017.2 8.5 6.8
2019-Jun-09 08:00N 54°30' W 156°18'3 3.5 060 / 101017.5 8.6 7.1
2019-Jun-09 07:00N 54°30' W 156°12'6 6.0 060 / 191016.6 8.6 6.8
2019-Jun-09 06:00N 54°24' W 156°12'7 6.9 060 / 161016.3 8.7 6.3
2019-Jun-09 05:00N 54°18' W 156°06'0 0.0 070 / 221015.5 8.7 6.2
2019-Jun-09 04:00N 54°18' W 156°06'4 3.5 070 / 221015.1 8.6 5.8
2019-Jun-09 03:00N 54°18' W 156°00'6 6.0 060 / 191015.0 8.6 6.1
2019-Jun-09 02:00N 54°12' W 156°00'0 0.0 070 / 211015.1 8.5 6.0
2019-Jun-09 01:00N 54°12' W 156°00'7 6.9 070 / 231014.8 8.6 6.1
2019-Jun-09 00:00N 54°18' W 156°06'0 0.0 070 / 191015.5 8.5 6.0
2019-Jun-08 23:00N 54°18' W 156°06'4 3.5 080 / 201015.5 8.5 6.1
2019-Jun-08 22:00N 54°18' W 156°00'6 6.0 060 / 211015.3 8.4 6.3
2019-Jun-08 21:00N 54°12' W 156°00'7 7.0 060 / 181015.2 8.3 5.9
2019-Jun-08 20:00N 54°06' W 155°54'0 0.0 070 / 231014.7 8.4 5.5
2019-Jun-08 19:00N 54°06' W 155°54'0 0.0 070 / 181014.9 8.4 5.1
2019-Jun-08 18:00N 54°06' W 155°54'6 6.0 060 / 151014.7 8.3 5.3
2019-Jun-08 17:00N 54°12' W 155°54'4 3.5 070 / 171014.7 8.0 5.1
2019-Jun-08 16:00N 54°12' W 156°00'7 7.0 080 / 191014.7 8.0 5.2
2019-Jun-08 15:00N 54°06' W 155°54'0 0.0 090 / 181014.6 8.0 5.0
2019-Jun-08 14:00N 54°06' W 155°54'7 7.0 080 / 181014.6 7.9 5.1
2019-Jun-08 13:00N 54°00' W 155°48'7 7.0 090 / 181014.9 7.8 5.3
2019-Jun-08 12:00N 53°54' W 155°42'0 0.0 070 / 161015.0 7.8 5.2
2019-Jun-08 11:00N 53°54' W 155°42'7 7.0 070 / 131015.4 8.1 5.2
2019-Jun-08 10:00N 54°00' W 155°48'0 0.0 080 / 141015.8 8.1 5.4
2019-Jun-08 09:00N 54°00' W 155°48'0 0.0 090 / 141016.4 8.2 5.0
2019-Jun-08 08:00N 54°00' W 155°48'7 7.0 100 / 131016.7 8.2 4.5
2019-Jun-08 07:00N 53°54' W 155°42'6 6.0 090 / 151016.6 8.2 5.4
2019-Jun-08 06:00N 53°48' W 155°42'4 3.5 080 / 141016.4 8.3 5.0
2019-Jun-08 05:00N 53°48' W 155°36'0 0.0 080 / 161016.4 8.5 4.8
2019-Jun-08 04:00N 53°48' W 155°36'6 6.0 080 / 151016.6 8.7 4.5
2019-Jun-08 03:00N 53°42' W 155°36'6 6.0 090 / 141016.9 8.9 4.1
2019-Jun-08 02:00N 53°48' W 155°36'4 3.5 090 / 121017.0 8.5 3.8
2019-Jun-08 01:00N 53°48' W 155°42'4 3.5 100 / 91017.8 8.3 3.5
2019-Jun-08 00:00N 53°48' W 155°36'6 6.0 100 / 101018.2 8.5 3.4
2019-Jun-07 23:00N 53°42' W 155°36'7 7.0 100 / 101018.3 8.4 3.7
2019-Jun-07 22:00N 53°36' W 155°30'9 9.3 080 / 91018.5 8.3 3.3
2019-Jun-07 21:00N 53°30' W 155°18'0 0.0 080 / 111018.7 8.7 3.3
2019-Jun-07 20:00N 53°30' W 155°18'4 3.6 080 / 71019.0 8.4 2.4
2019-Jun-07 19:00N 53°30' W 155°24'0 0.0 110 / 91019.2 8.1 4.1
2019-Jun-07 18:00N 53°30' W 155°24'6 6.0 090 / 71019.3 8.0 4.1
2019-Jun-07 17:00N 53°36' W 155°24'0 0.0 090 / 71019.3 7.8 4.0
2019-Jun-07 16:00N 53°36' W 155°24'4 3.6 090 / 31019.3 7.8 3.7
2019-Jun-07 15:00N 53°36' W 155°30'0 0.0 140 / 31019.4 7.7 3.4
2019-Jun-07 14:00N 53°36' W 155°30'6 6.0 220 / 51019.6 7.6 3.5
2019-Jun-07 13:00N 53°42' W 155°30'0 0.0 230 / 51019.9 7.5 4.2
2019-Jun-07 12:00N 53°42' W 155°30'0 0.0 240 / 81020.2 7.1 3.9
2019-Jun-07 11:00N 53°42' W 155°30'4 3.6 230 / 61020.3 7.3 4.7
2019-Jun-07 10:00N 53°42' W 155°36'6 6.0 240 / 81020.6 7.5 4.3
2019-Jun-07 09:00N 53°48' W 155°36'0 0.0 210 / 71020.8 7.5 4.4
2019-Jun-07 08:00N 53°48' W 155°36'0 0.0 220 / 121021.0 7.5 4.6
2019-Jun-07 07:00N 53°48' W 155°36'0 0.0 240 / 81021.3 7.6 5.0
2019-Jun-07 06:00N 53°48' W 155°36'4 3.5 260 / 101021.1 7.6 4.9
2019-Jun-07 05:00N 53°48' W 155°42'6 6.0 250 / 121020.9 7.7 5.2
2019-Jun-07 04:00N 53°54' W 155°42'0 0.0 260 / 111020.9 7.6 5.6
2019-Jun-07 03:00N 53°54' W 155°42'0 0.0 240 / 151021.0 7.7 5.7
2019-Jun-07 02:00N 53°54' W 155°42'0 0.0 250 / 141021.3 7.7 6.2
2019-Jun-07 01:00N 53°54' W 155°42'7 7.0 250 / 141021.4 7.8 6.0
2019-Jun-07 00:00N 54°00' W 155°48'0 0.0 240 / 131021.7 7.5 5.7
2019-Jun-06 23:00N 54°00' W 155°48'0 0.0 260 / 121021.8 7.6 5.8
2019-Jun-06 22:00N 54°00' W 155°48'0 0.0 270 / 131022.1 7.6 5.8
2019-Jun-06 21:00N 54°00' W 155°48'7 7.0 260 / 131022.4 7.6 5.5
2019-Jun-06 20:00N 54°06' W 155°54'0 0.0 240 / 131022.4 7.4 5.4
2019-Jun-06 19:00N 54°06' W 155°54'0 0.0 250 / 121022.3 7.5 5.5
2019-Jun-06 18:00N 54°06' W 155°54'0 0.0 270 / 131022.2 7.6 5.7
2019-Jun-06 17:00N 54°06' W 155°54'6 6.0 260 / 121022.0 7.5 5.8
2019-Jun-06 16:00N 54°12' W 155°54'4 3.5 270 / 121022.2 7.6 5.4
2019-Jun-06 15:00N 54°12' W 156°00'0 0.0 270 / 131022.3 7.4 5.5
2019-Jun-06 14:00N 54°12' W 156°00'   250 / 151022.0 7.4 5.8
Track history (hours):
 
Tides and Currents Weather Stations Pressure Air Temp Water Temp Dewpoint Dewpoint Depression Visibility Wind Speed Wind Dir Waves Ship Positions

Oceanographic research ship Sikuliaq (USA)

Owner: Mackay Communications, Raleigh, NC. More information available from US FCC via Universal Licensing System.

Last reported at 2019-Jun-16 14:00 UTC. Time now 2019-Jun-16 15:13 UTC.
Position N 53°48' W 160°12'.

Length 80 m; draft 6.2 m.

Type: Other ship. MMSI: 338417000.

Wind from 060 at 10 knots

Barometer 998.6 mb
Air temperature 8.3 ° C
Dewpoint 7.4 ° C

Date/timePositionNaut miles runAvg speedWind from/ knotsBaromVisibWave heightAir tempDewpointWater temp
2019-Jun-16 14:00N 53°48' W 160°12'4 3.5 060 / 10998.6 8.3 7.4
2019-Jun-16 13:00N 53°48' W 160°06'6 6.0 070 / 9998.8 8.1 7.3
2019-Jun-16 12:00N 53°42' W 160°06'0 0.0 090 / 14998.5 8.4 7.6
2019-Jun-16 11:00N 53°42' W 160°06'0 0.0 080 / 10998.6 8.6 7.6
2019-Jun-16 10:00N 53°42' W 160°06'6 6.0 080 / 12998.7 8.4 7.2
2019-Jun-16 09:00N 53°48' W 160°06'0 0.0 090 / 14998.7 8.5 7.4
2019-Jun-16 08:00N 53°48' W 160°06'7 7.0 100 / 14998.9 8.6 7.3
2019-Jun-16 07:00N 53°42' W 160°00'4 3.6 100 / 15998.5 8.6 7.4
2019-Jun-16 06:00N 53°42' W 160°06'7 7.0 100 / 17998.0 8.6 7.2
2019-Jun-16 05:00N 53°48' W 160°00'0 0.0 080 / 13998.2 8.6 7.5
2019-Jun-16 04:00N 53°48' W 160°00'4 3.5 110 / 16998.1 8.6 7.6
2019-Jun-16 03:00N 53°48' W 159°54'4 3.5 110 / 18997.9 8.7 7.3
2019-Jun-16 02:00N 53°48' W 160°00'0 0.0 120 / 16998.1 8.7 7.3
2019-Jun-16 01:00N 53°48' W 160°00'0 0.0 120 / 16997.9 8.6 7.7
2019-Jun-16 00:00N 53°48' W 160°00'4 3.5 120 / 16997.8 8.4 7.6
2019-Jun-15 23:00N 53°48' W 159°54'4 3.5 120 / 18997.2 8.4 7.9
2019-Jun-15 22:00N 53°48' W 160°00'7 7.0 120 / 18997.4 8.5 7.6
2019-Jun-15 21:00N 53°54' W 160°06'4 3.5 110 / 18997.3 8.6 7.3
2019-Jun-15 20:00N 53°54' W 160°00'0 0.0 110 / 18997.1 8.3 7.6
2019-Jun-15 19:00N 53°54' W 160°00'4 3.5 100 / 15997.0 8.7 7.4
2019-Jun-15 18:00N 53°54' W 160°06'4 3.5 120 / 18996.6 8.6 7.2
2019-Jun-15 17:00N 53°54' W 160°00'0 0.0 120 / 14996.2 8.7 7.0
2019-Jun-15 16:00N 53°54' W 160°00'0 0.0 120 / 15995.9 8.4 7.6
2019-Jun-15 15:00N 53°54' W 160°00'4 3.5 130 / 16995.7 8.4 7.9
2019-Jun-15 14:00N 53°54' W 160°06'7 7.0 130 / 15995.3 8.5 7.5
2019-Jun-15 13:00N 53°48' W 160°12'7 7.0 130 / 15995.2 8.5 7.9
2019-Jun-15 12:00N 53°54' W 160°18'4 3.5 120 / 16995.0 8.4 8.3
2019-Jun-15 11:00N 53°54' W 160°12'4 3.5 110 / 21995.2 8.3 8.0
2019-Jun-15 10:00N 53°54' W 160°06'7 7.0 130 / 20994.9 8.4 8.1
2019-Jun-15 09:00N 53°48' W 160°12'6 6.0 120 / 19994.8 8.4 8.2
2019-Jun-15 08:00N 53°54' W 160°12'0 0.0 110 / 18994.8 8.4 8.4
2019-Jun-15 07:00N 53°54' W 160°12'6 6.0 090 / 19994.4 8.5 8.1
2019-Jun-15 06:00N 54°00' W 160°12'0 0.0 090 / 17994.7 8.6 7.8
2019-Jun-15 05:00N 54°00' W 160°12'0 0.0 070 / 20994.8 8.5 7.6
2019-Jun-15 04:00N 54°00' W 160°12'6 6.0 090 / 22995.2 8.8 6.4
2019-Jun-15 03:00N 53°54' W 160°12'6 6.0 070 / 13995.4 8.7 6.6
2019-Jun-15 02:00N 54°00' W 160°12'6 6.0 090 / 15995.9 8.7 7.0
2019-Jun-15 01:00N 54°06' W 160°12'4 3.5 090 / 14996.2 8.7 7.0
2019-Jun-15 00:00N 54°06' W 160°18'4 3.5 090 / 14996.0 8.7 6.7
2019-Jun-14 23:00N 54°06' W 160°12'4 3.5 100 / 11996.2 8.5 6.8
2019-Jun-14 22:00N 54°06' W 160°18'6 6.0 100 / 11996.3 8.1 7.0
2019-Jun-14 21:00N 54°12' W 160°18'0 0.0 110 / 12996.4 7.8 6.9
2019-Jun-14 20:00N 54°12' W 160°18'0 0.0 130 / 15996.4 8.1 7.4
2019-Jun-14 19:00N 54°12' W 160°18'0 0.0 100 / 17996.6 8.1 7.9
2019-Jun-14 18:00N 54°12' W 160°18'6 6.0 080 / 17996.7 8.3 7.3
2019-Jun-14 17:00N 54°18' W 160°18'0 0.0 080 / 18996.4 8.5 7.9
2019-Jun-14 16:00N 54°18' W 160°18'0 0.0 080 / 21996.3 8.4 8.3
2019-Jun-14 15:00N 54°18' W 160°18'7 6.9 070 / 22996.8 8.6 8.2
2019-Jun-14 14:00N 54°12' W 160°24'6 6.0 090 / 23996.8 8.5 8.5
2019-Jun-14 13:00N 54°06' W 160°24'6 6.0 090 / 19997.1 8.5 8.5
2019-Jun-14 12:00N 54°00' W 160°24'1312.5 080 / 14997.6 8.4 8.3
2019-Jun-14 11:00N 53°48' W 160°30'4 3.5 100 / 10997.9 8.2 8.1
2019-Jun-14 10:00N 53°48' W 160°24'0 0.0 100 / 15998.3 8.2 8.0
2019-Jun-14 09:00N 53°48' W 160°24'4 3.5 110 / 15998.6 8.3 8.2
2019-Jun-14 08:00N 53°48' W 160°18'0 0.0 110 / 16998.6 8.6 8.0
2019-Jun-14 07:00N 53°48' W 160°18'4 3.5 110 / 19998.5 8.4 8.4
2019-Jun-14 06:00N 53°48' W 160°12'0 0.0 100 / 18998.2 8.5 8.5
2019-Jun-14 05:00N 53°48' W 160°12'0 0.0 100 / 21998.1 8.6 8.5
2019-Jun-14 04:00N 53°48' W 160°12'4 3.5 100 / 23998.3 8.6 8.5
2019-Jun-14 03:00N 53°48' W 160°06'0 0.0 090 / 25998.7 8.7 8.5
2019-Jun-14 02:00N 53°48' W 160°06'4 3.5 090 / 27999.0 8.7 8.5
2019-Jun-14 01:00N 53°48' W 160°00'6 6.0 100 / 19999.5 8.7 8.4
2019-Jun-14 00:00N 53°54' W 160°00'4 3.5 110 / 151000.1 8.8 8.5
2019-Jun-13 23:00N 53°54' W 159°54'0 0.0 090 / 291000.1 8.6 8.2
2019-Jun-13 22:00N 53°54' W 159°54'4 3.5 100 / 191000.9 8.7 8.2
2019-Jun-13 21:00N 53°54' W 159°48'6 6.0 100 / 301001.0 8.6 8.2
2019-Jun-13 20:00N 53°48' W 159°48'4 3.5 100 / 271001.5 8.8 7.8
2019-Jun-13 19:00N 53°48' W 159°54'0 0.0 110 / 261001.9 8.8 7.8
2019-Jun-13 18:00N 53°48' W 159°54'4 3.5 110 / 261002.0 8.8 7.8
2019-Jun-13 17:00N 53°48' W 160°00'0 0.0 100 / 291001.9 8.8 7.7
2019-Jun-13 16:00N 53°48' W 160°00'0 0.0 100 / 291001.9 8.8 7.8
2019-Jun-13 15:00N 53°48' W 160°00'4 3.5 110 / 271002.1 8.8 7.9
2019-Jun-13 14:00N 53°48' W 160°06'0 0.0 110 / 271002.5 8.8 7.9
2019-Jun-13 13:00N 53°48' W 160°06'0 0.0 110 / 271002.9 8.7 8.0
2019-Jun-13 12:00N 53°48' W 160°06'4 3.5 110 / 241003.4 8.6 8.1
2019-Jun-13 11:00N 53°48' W 160°12'0 0.0 110 / 251003.8 8.6 8.1
2019-Jun-13 10:00N 53°48' W 160°12'4 3.5 110 / 241004.4 8.6 8.1
2019-Jun-13 09:00N 53°48' W 160°18'6 6.0 120 / 251004.7 8.7 8.1
2019-Jun-13 08:00N 53°42' W 160°18'4 3.6 130 / 291004.6 8.4 8.3
2019-Jun-13 07:00N 53°42' W 160°12'0 0.0 120 / 81005.1 8.8 7.9
2019-Jun-13 06:00N 53°42' W 160°12'4 3.6 120 / 111005.6 8.6 7.9
2019-Jun-13 05:00N 53°42' W 160°06'0 0.0 130 / 71006.1 9.0 7.9
2019-Jun-13 04:00N 53°42' W 160°06'4 3.6 120 / 121006.7 8.7 7.9
2019-Jun-13 03:00N 53°42' W 160°00'4 3.6 120 / 191007.2 8.6 7.6
2019-Jun-13 02:00N 53°42' W 160°06'0 0.0 120 / 181007.8 8.7 7.4
2019-Jun-13 01:00N 53°42' W 160°06'0 0.0 120 / 151008.6 8.8 7.7
2019-Jun-13 00:00N 53°42' W 160°06'6 6.0 130 / 181009.3 8.8 7.5
2019-Jun-12 23:00N 53°48' W 160°06'0 0.0 120 / 121009.5 9.0 8.0
2019-Jun-12 22:00N 53°48' W 160°06'0 0.0 130 / 111009.9 8.9 7.7
2019-Jun-12 21:00N 53°48' W 160°06'0 0.0 130 / 91009.9 8.9 7.4
2019-Jun-12 20:00N 53°48' W 160°06'6 6.0 160 / 91010.2 8.9 7.4
2019-Jun-12 19:00N 53°54' W 160°06'0 0.0 190 / 101010.5 8.8 7.6
2019-Jun-12 18:00N 53°54' W 160°06'4 3.5 200 / 71009.9 8.8 7.7
2019-Jun-12 17:00N 53°54' W 160°12'0 0.0 130 / 61009.8 7.9 7.9
2019-Jun-12 16:00N 53°54' W 160°12'6 6.0 160 / 81010.1 7.8 7.7
2019-Jun-12 15:00N 54°00' W 160°12'0 0.0 110 / 71010.2 8.9 8.5
2019-Jun-12 14:00N 54°00' W 160°12'0 0.0 150 / 71010.6 8.9 8.4
2019-Jun-12 13:00N 54°00' W 160°12'0 0.0 130 / 71011.0 9.2 8.4
2019-Jun-12 12:00N 54°00' W 160°12'6 6.0 110 / 61011.1 9.3 8.5
2019-Jun-12 11:00N 54°06' W 160°12'0 0.0 100 / 41011.3 9.5 7.9
2019-Jun-12 10:00N 54°06' W 160°12'6 6.0 140 / 21011.6 9.8 7.5
2019-Jun-12 09:00N 54°00' W 160°12'0 0.0 200 / 11011.9 9.7 7.8
2019-Jun-12 08:00N 54°00' W 160°12'0 0.0 060 / 21012.0 9.7 8.4
2019-Jun-12 07:00N 54°00' W 160°12'6 6.0 020 / 11011.7 9.7 8.5
2019-Jun-12 06:00N 54°06' W 160°12'0 0.0 290 / 21011.5 10.2 7.7
2019-Jun-12 05:00N 54°06' W 160°12'0 0.0 250 / 21011.8 10.2 8.3
2019-Jun-12 04:00N 54°06' W 160°12'4 3.5 190 / 31012.0 10.1 8.4
2019-Jun-12 03:00N 54°06' W 160°18'0 0.0 030 / 41012.0 10.4 8.1
2019-Jun-12 02:00N 54°06' W 160°18'6 6.0 1012.4 10.4 8.2
2019-Jun-12 01:00N 54°12' W 160°18'0 0.0 1012.5 10.0 8.2
2019-Jun-12 00:00N 54°12' W 160°18'0 0.0 340 / 51012.9 10.2 8.2
2019-Jun-11 23:00N 54°12' W 160°18'0 0.0 340 / 61012.9 10.4 8.1
2019-Jun-11 22:00N 54°12' W 160°18'6 6.0 340 / 71012.9 10.4 7.9
2019-Jun-11 21:00N 54°18' W 160°18'0 0.0 330 / 51012.9 9.9 7.6
2019-Jun-11 20:00N 54°18' W 160°18'0 0.0 310 / 51013.1 9.9 7.6
2019-Jun-11 19:00N 54°18' W 160°18'7 6.9 320 / 161012.5 9.3 7.8
2019-Jun-11 18:00N 54°24' W 160°24'0 0.0 330 / 71012.5 9.7 7.4
2019-Jun-11 17:00N 54°24' W 160°24'7 6.9 310 / 111012.5 9.1 7.6
2019-Jun-11 16:00N 54°18' W 160°18'6 6.0 320 / 151012.4 9.0 7.7
2019-Jun-11 15:00N 54°12' W 160°18'6 6.0 310 / 131012.6 9.1 7.8
2019-Jun-11 14:00N 54°06' W 160°18'7 7.0 320 / 91012.6 9.2 8.0
2019-Jun-11 13:00N 54°00' W 160°12'0 0.0 340 / 101012.8 9.5 7.5
2019-Jun-11 12:00N 54°00' W 160°12'7 7.0 010 / 101012.9 9.9 6.7
2019-Jun-11 11:00N 53°54' W 160°18'7 7.1 350 / 91012.9 9.5 7.1
2019-Jun-11 10:00N 53°54' W 160°06'4 3.5 360 / 111013.0 9.4 7.0
2019-Jun-11 09:00N 53°54' W 160°00'4 3.5 1012.7 9.7 6.8
2019-Jun-11 08:00N 53°54' W 160°06'7 7.0 350 / 81012.7 9.4 7.0
2019-Jun-11 07:00N 53°48' W 160°12'0 0.0 020 / 91012.2 9.6 6.8
2019-Jun-11 06:00N 53°48' W 160°12'4 3.5 010 / 101012.3 9.6 6.4
2019-Jun-11 05:00N 53°48' W 160°06'9 9.3 010 / 121012.3 9.5 6.9
2019-Jun-11 04:00N 53°54' W 159°54'7 7.0 010 / 141012.3 9.5 7.4
2019-Jun-11 03:00N 53°48' W 160°00'4 3.5 1012.5 9.3 7.1
2019-Jun-11 02:00N 53°48' W 160°06'4 3.5 350 / 151012.7 9.1 7.1
2019-Jun-11 01:00N 53°48' W 160°12'4 3.5 350 / 141013.2 9.2 6.6
2019-Jun-11 00:00N 53°48' W 160°06'7 7.0 010 / 181013.3 9.1 6.4
2019-Jun-10 23:00N 53°42' W 160°00'7 7.1 010 / 171013.5 9.0 6.2
2019-Jun-10 22:00N 53°42' W 159°48'29 9.7 010 / 241013.2 8.9 6.6
2019-Jun-10 19:00N 53°48' W 159°00'9 9.3 030 / 231013.3 8.8 6.0
2019-Jun-10 18:00N 53°54' W 158°48'1616.0 040 / 191013.3 8.7 5.7
2019-Jun-10 17:00N 54°06' W 158°30'9 9.2 040 / 181013.5 8.7 6.4
2019-Jun-10 16:00N 54°12' W 158°18'9 9.2 040 / 191013.6 8.7 6.7
2019-Jun-10 15:00N 54°18' W 158°06'1212.1 040 / 191013.6 8.7 6.7
2019-Jun-10 14:00N 54°24' W 157°48'1413.9 040 / 191013.8 8.8 6.7
2019-Jun-10 13:00N 54°36' W 157°36'9 9.2 040 / 181014.3 8.9 6.5
2019-Jun-10 12:00N 54°42' W 157°24'1212.0 040 / 161014.8 9.1 6.3
2019-Jun-10 11:00N 54°48' W 157°06'9 9.2 040 / 181015.7 9.2 6.5
2019-Jun-10 10:00N 54°54' W 156°54'9 9.1 040 / 191016.1 9.2 6.8
2019-Jun-10 09:00N 55°00' W 156°42'0 0.0 030 / 231016.3 9.0 6.9
2019-Jun-10 08:00N 55°00' W 156°42'0 0.0 050 / 211016.9 9.1 7.1
2019-Jun-10 07:00N 55°00' W 156°42'6 6.0 050 / 211017.1 9.1 7.1
2019-Jun-10 06:00N 54°54' W 156°42'6 6.0 050 / 221016.4 9.1 6.8
2019-Jun-10 05:00N 55°00' W 156°42'6 6.0 060 / 261016.5 9.1 6.9
2019-Jun-10 04:00N 54°54' W 156°42'3 3.5 060 / 231016.9 9.2 6.7
2019-Jun-10 03:00N 54°54' W 156°36'0 0.0 050 / 211017.2 9.3 6.7
2019-Jun-10 02:00N 54°54' W 156°36'0 0.0 060 / 211017.9 9.4 6.5
2019-Jun-10 01:00N 54°54' W 156°36'7 6.9 060 / 251017.6 9.2 6.6
2019-Jun-10 00:00N 54°48' W 156°30'6 6.0 050 / 241018.1 9.3 6.7
2019-Jun-09 23:00N 54°42' W 156°30'7 6.9 060 / 241018.1 9.2 5.9
2019-Jun-09 22:00N 54°48' W 156°36'3 3.5 050 / 191018.8 9.2 5.9
2019-Jun-09 21:00N 54°48' W 156°30'6 6.0 060 / 201019.0 9.2 6.0
2019-Jun-09 20:00N 54°42' W 156°30'3 3.5 050 / 211018.5 9.1 5.1
2019-Jun-09 19:00N 54°42' W 156°24'6 6.0 050 / 181018.4 8.8 5.5
2019-Jun-09 18:00N 54°36' W 156°24'0 0.0 060 / 191018.2 8.8 4.8
2019-Jun-09 17:00N 54°36' W 156°24'6 6.0 050 / 221017.5 8.7 5.1
2019-Jun-09 16:00N 54°42' W 156°24'0 0.0 050 / 201017.9 8.9 4.8
2019-Jun-09 15:00N 54°42' W 156°24'6 6.0 060 / 211017.6 8.7 5.3
2019-Jun-09 14:00N 54°36' W 156°24'3 3.5 070 / 221017.2 8.5 6.2
2019-Jun-09 13:00N 54°36' W 156°18'6 6.0 070 / 201017.4 8.5 6.4
2019-Jun-09 12:00N 54°30' W 156°18'7 6.9 060 / 201017.3 8.6 6.3
2019-Jun-09 11:00N 54°24' W 156°12'7 6.9 070 / 211017.0 8.7 5.2
2019-Jun-09 10:00N 54°30' W 156°18'0 0.0 060 / 211016.9 8.6 6.1
2019-Jun-09 09:00N 54°30' W 156°18'0 0.0 070 / 211017.2 8.5 6.8
2019-Jun-09 08:00N 54°30' W 156°18'3 3.5 060 / 101017.5 8.6 7.1
2019-Jun-09 07:00N 54°30' W 156°12'6 6.0 060 / 191016.6 8.6 6.8
2019-Jun-09 06:00N 54°24' W 156°12'7 6.9 060 / 161016.3 8.7 6.3
2019-Jun-09 05:00N 54°18' W 156°06'0 0.0 070 / 221015.5 8.7 6.2
2019-Jun-09 04:00N 54°18' W 156°06'4 3.5 070 / 221015.1 8.6 5.8
2019-Jun-09 03:00N 54°18' W 156°00'6 6.0 060 / 191015.0 8.6 6.1
2019-Jun-09 02:00N 54°12' W 156°00'0 0.0 070 / 211015.1 8.5 6.0
2019-Jun-09 01:00N 54°12' W 156°00'7 6.9 070 / 231014.8 8.6 6.1
2019-Jun-09 00:00N 54°18' W 156°06'0 0.0 070 / 191015.5 8.5 6.0
2019-Jun-08 23:00N 54°18' W 156°06'4 3.5 080 / 201015.5 8.5 6.1
2019-Jun-08 22:00N 54°18' W 156°00'6 6.0 060 / 211015.3 8.4 6.3
2019-Jun-08 21:00N 54°12' W 156°00'7 7.0 060 / 181015.2 8.3 5.9
2019-Jun-08 20:00N 54°06' W 155°54'0 0.0 070 / 231014.7 8.4 5.5
2019-Jun-08 19:00N 54°06' W 155°54'0 0.0 070 / 181014.9 8.4 5.1
2019-Jun-08 18:00N 54°06' W 155°54'6 6.0 060 / 151014.7 8.3 5.3
2019-Jun-08 17:00N 54°12' W 155°54'4 3.5 070 / 171014.7 8.0 5.1
2019-Jun-08 16:00N 54°12' W 156°00'7 7.0 080 / 191014.7 8.0 5.2
2019-Jun-08 15:00N 54°06' W 155°54'0 0.0 090 / 181014.6 8.0 5.0
2019-Jun-08 14:00N 54°06' W 155°54'7 7.0 080 / 181014.6 7.9 5.1
2019-Jun-08 13:00N 54°00' W 155°48'7 7.0 090 / 181014.9 7.8 5.3
2019-Jun-08 12:00N 53°54' W 155°42'0 0.0 070 / 161015.0 7.8 5.2
2019-Jun-08 11:00N 53°54' W 155°42'7 7.0 070 / 131015.4 8.1 5.2
2019-Jun-08 10:00N 54°00' W 155°48'0 0.0 080 / 141015.8 8.1 5.4
2019-Jun-08 09:00N 54°00' W 155°48'0 0.0 090 / 141016.4 8.2 5.0
2019-Jun-08 08:00N 54°00' W 155°48'7 7.0 100 / 131016.7 8.2 4.5
2019-Jun-08 07:00N 53°54' W 155°42'6 6.0 090 / 151016.6 8.2 5.4
2019-Jun-08 06:00N 53°48' W 155°42'4 3.5 080 / 141016.4 8.3 5.0
2019-Jun-08 05:00N 53°48' W 155°36'0 0.0 080 / 161016.4 8.5 4.8
2019-Jun-08 04:00N 53°48' W 155°36'6 6.0 080 / 151016.6 8.7 4.5
2019-Jun-08 03:00N 53°42' W 155°36'6 6.0 090 / 141016.9 8.9 4.1
2019-Jun-08 02:00N 53°48' W 155°36'4 3.5 090 / 121017.0 8.5 3.8
2019-Jun-08 01:00N 53°48' W 155°42'4 3.5 100 / 91017.8 8.3 3.5
2019-Jun-08 00:00N 53°48' W 155°36'6 6.0 100 / 101018.2 8.5 3.4
2019-Jun-07 23:00N 53°42' W 155°36'7 7.0 100 / 101018.3 8.4 3.7
2019-Jun-07 22:00N 53°36' W 155°30'9 9.3 080 / 91018.5 8.3 3.3
2019-Jun-07 21:00N 53°30' W 155°18'0 0.0 080 / 111018.7 8.7 3.3
2019-Jun-07 20:00N 53°30' W 155°18'4 3.6 080 / 71019.0 8.4 2.4
2019-Jun-07 19:00N 53°30' W 155°24'0 0.0 110 / 91019.2 8.1 4.1
2019-Jun-07 18:00N 53°30' W 155°24'6 6.0 090 / 71019.3 8.0 4.1
2019-Jun-07 17:00N 53°36' W 155°24'0 0.0 090 / 71019.3 7.8 4.0
2019-Jun-07 16:00N 53°36' W 155°24'4 3.6 090 / 31019.3 7.8 3.7
2019-Jun-07 15:00N 53°36' W 155°30'0 0.0 140 / 31019.4 7.7 3.4
2019-Jun-07 14:00N 53°36' W 155°30'6 6.0 220 / 51019.6 7.6 3.5
2019-Jun-07 13:00N 53°42' W 155°30'0 0.0 230 / 51019.9 7.5 4.2
2019-Jun-07 12:00N 53°42' W 155°30'0 0.0 240 / 81020.2 7.1 3.9
2019-Jun-07 11:00N 53°42' W 155°30'4 3.6 230 / 61020.3 7.3 4.7
2019-Jun-07 10:00N 53°42' W 155°36'6 6.0 240 / 81020.6 7.5 4.3
2019-Jun-07 09:00N 53°48' W 155°36'0 0.0 210 / 71020.8 7.5 4.4
2019-Jun-07 08:00N 53°48' W 155°36'0 0.0 220 / 121021.0 7.5 4.6
2019-Jun-07 07:00N 53°48' W 155°36'0 0.0 240 / 81021.3 7.6 5.0
2019-Jun-07 06:00N 53°48' W 155°36'4 3.5 260 / 101021.1 7.6 4.9
2019-Jun-07 05:00N 53°48' W 155°42'6 6.0 250 / 121020.9 7.7 5.2
2019-Jun-07 04:00N 53°54' W 155°42'0 0.0 260 / 111020.9 7.6 5.6
2019-Jun-07 03:00N 53°54' W 155°42'0 0.0 240 / 151021.0 7.7 5.7
2019-Jun-07 02:00N 53°54' W 155°42'0 0.0 250 / 141021.3 7.7 6.2
2019-Jun-07 01:00N 53°54' W 155°42'7 7.0 250 / 141021.4 7.8 6.0
2019-Jun-07 00:00N 54°00' W 155°48'0 0.0 240 / 131021.7 7.5 5.7
2019-Jun-06 23:00N 54°00' W 155°48'0 0.0 260 / 121021.8 7.6 5.8
2019-Jun-06 22:00N 54°00' W 155°48'0 0.0 270 / 131022.1 7.6 5.8
2019-Jun-06 21:00N 54°00' W 155°48'7 7.0 260 / 131022.4 7.6 5.5
2019-Jun-06 20:00N 54°06' W 155°54'0 0.0 240 / 131022.4 7.4 5.4
2019-Jun-06 19:00N 54°06' W 155°54'0 0.0 250 / 121022.3 7.5 5.5
2019-Jun-06 18:00N 54°06' W 155°54'0 0.0 270 / 131022.2 7.6 5.7
2019-Jun-06 17:00N 54°06' W 155°54'6 6.0 260 / 121022.0 7.5 5.8
2019-Jun-06 16:00N 54°12' W 155°54'4 3.5 270 / 121022.2 7.6 5.4
2019-Jun-06 15:00N 54°12' W 156°00'0 0.0 270 / 131022.3 7.4 5.5
2019-Jun-06 14:00N 54°12' W 156°00'   250 / 151022.0 7.4 5.8

Dump ship's entire track history